createdAt,value
2024-01-20T00:00:53.453Z,17.98
2024-01-20T00:03:23.410Z,18.48
2024-01-20T00:05:50.541Z,16.48
2024-01-20T00:08:18.192Z,17.15
2024-01-20T00:10:45.360Z,15.35
2024-01-20T00:13:12.838Z,16.88
2024-01-20T00:15:43.175Z,15.77
2024-01-20T00:18:11.310Z,16.10
2024-01-20T00:20:39.376Z,15.95
2024-01-20T00:23:06.804Z,14.80
2024-01-20T00:25:34.409Z,14.23
2024-01-20T00:28:02.579Z,15.05
2024-01-20T00:30:30.532Z,11.05
2024-01-20T00:32:57.882Z,15.15
2024-01-20T00:35:25.158Z,17.48
2024-01-20T00:37:52.086Z,14.50
2024-01-20T00:40:21.685Z,14.65
2024-01-20T00:42:48.663Z,17.48
2024-01-20T00:45:15.587Z,12.63
2024-01-20T00:47:42.592Z,14.55
2024-01-20T00:50:10.665Z,12.20
2024-01-20T00:52:37.913Z,14.80
2024-01-20T00:55:05.751Z,14.90
2024-01-20T00:57:33.025Z,15.15
2024-01-20T01:00:09.019Z,13.75
2024-01-20T01:02:40.188Z,19.10
2024-01-20T01:05:08.397Z,21.88
2024-01-20T01:07:36.805Z,17.70
2024-01-20T01:10:05.013Z,15.15
2024-01-20T01:12:31.847Z,18.85
2024-01-20T01:14:58.852Z,23.48
2024-01-20T01:17:26.104Z,18.80
2024-01-20T01:19:54.423Z,16.30
2024-01-20T01:22:23.920Z,15.00
2024-01-20T01:24:51.277Z,14.85
2024-01-20T01:27:18.207Z,18.48
2024-01-20T01:29:45.182Z,14.52
2024-01-20T01:32:12.127Z,19.92
2024-01-20T01:34:42.647Z,16.75
2024-01-20T01:37:10.691Z,19.13
2024-01-20T01:39:39.646Z,19.35
2024-01-20T01:42:07.624Z,15.30
2024-01-20T01:44:34.461Z,18.92
2024-01-20T01:47:02.755Z,14.60
2024-01-20T01:49:29.985Z,17.80
2024-01-20T01:51:56.819Z,18.45
2024-01-20T01:54:25.936Z,21.33
2024-01-20T01:56:54.494Z,17.40
2024-01-20T01:59:22.370Z,19.45
2024-01-20T02:01:49.202Z,18.23
2024-01-20T02:04:16.338Z,20.45
2024-01-20T02:06:43.879Z,18.00
2024-01-20T02:09:11.590Z,21.30
2024-01-20T02:11:40.451Z,18.48
2024-01-20T02:14:07.736Z,19.73
2024-01-20T02:16:35.124Z,21.80
2024-01-20T02:19:08.620Z,18.58
2024-01-20T02:21:37.746Z,19.75
2024-01-20T02:24:08.867Z,20.35
2024-01-20T02:26:39.090Z,18.13
2024-01-20T02:29:06.214Z,17.77
2024-01-20T02:31:33.333Z,20.52
2024-01-20T02:34:01.709Z,17.77
2024-01-20T02:36:28.695Z,18.27
2024-01-20T02:38:55.737Z,21.25
2024-01-20T02:41:22.595Z,18.45
2024-01-20T02:43:49.564Z,21.08
2024-01-20T02:46:16.477Z,17.58
2024-01-20T02:48:43.447Z,17.58
2024-01-20T02:51:10.479Z,16.70
2024-01-20T02:53:38.455Z,17.35
2024-01-20T02:56:05.638Z,16.15
2024-01-20T02:58:33.816Z,17.02
2024-01-20T03:01:02.178Z,19.00
2024-01-20T03:03:29.505Z,17.15
2024-01-20T03:05:56.807Z,16.80
2024-01-20T03:08:23.738Z,21.23
2024-01-20T03:10:50.951Z,18.33
2024-01-20T03:13:20.237Z,19.35
2024-01-20T03:15:47.099Z,20.45
2024-01-20T03:18:16.287Z,21.45
2024-01-20T03:20:43.549Z,16.60
2024-01-20T03:23:10.534Z,19.58
2024-01-20T03:25:37.494Z,15.63
2024-01-20T03:28:04.650Z,17.80
2024-01-20T03:30:34.059Z,16.40
2024-01-20T03:33:02.586Z,15.40
2024-01-20T03:35:29.878Z,14.75
2024-01-20T03:37:56.782Z,14.10
2024-01-20T03:40:23.751Z,14.20
2024-01-20T03:42:50.564Z,12.40
2024-01-20T03:45:17.674Z,14.98
2024-01-20T03:47:45.609Z,17.42
2024-01-20T03:50:17.079Z,12.43
2024-01-20T03:52:44.592Z,10.98
2024-01-20T03:55:13.584Z,13.32
2024-01-20T03:57:42.636Z,14.57
2024-01-20T04:00:11.506Z,12.75
2024-01-20T04:02:39.101Z,15.20
2024-01-20T04:05:07.013Z,11.23
2024-01-20T04:07:35.046Z,13.75
2024-01-20T04:10:02.348Z,15.77
2024-01-20T04:12:29.502Z,16.23
2024-01-20T04:14:57.201Z,11.50
2024-01-20T04:17:25.412Z,14.30
2024-01-20T04:19:52.770Z,11.65
2024-01-20T04:22:23.194Z,14.63
2024-01-20T04:24:50.212Z,14.15
2024-01-20T04:27:18.349Z,14.07
2024-01-20T04:29:45.125Z,16.92
2024-01-20T04:32:12.057Z,10.70
2024-01-20T04:34:39.745Z,17.08
2024-01-20T04:37:07.734Z,16.77
2024-01-20T04:39:38.676Z,16.17
2024-01-20T04:42:06.707Z,14.35
2024-01-20T04:44:33.972Z,16.20
2024-01-20T04:47:01.883Z,13.88
2024-01-20T04:49:31.081Z,13.25
2024-01-20T04:52:02.810Z,11.80
2024-01-20T04:54:32.091Z,14.82
2024-01-20T04:56:59.817Z,16.05
2024-01-20T04:59:26.974Z,17.60
2024-01-20T05:01:54.384Z,14.18
2024-01-20T05:04:24.366Z,13.43
2024-01-20T05:06:53.413Z,17.50
2024-01-20T05:09:20.879Z,11.57
2024-01-20T05:11:52.900Z,13.45
2024-01-20T05:14:19.810Z,13.65
2024-01-20T05:16:48.617Z,12.35
2024-01-20T05:19:17.062Z,11.65
2024-01-20T05:21:45.407Z,13.13
2024-01-20T05:24:15.329Z,11.43
2024-01-20T05:26:42.294Z,10.73
2024-01-20T05:29:09.175Z,13.82
2024-01-20T05:31:39.174Z,14.82
2024-01-20T05:34:06.331Z,15.07
2024-01-20T05:36:33.974Z,9.57
2024-01-20T05:39:02.322Z,12.52
2024-01-20T05:41:30.164Z,12.48
2024-01-20T05:43:57.255Z,11.65
2024-01-20T05:46:24.534Z,15.05
2024-01-20T05:48:51.586Z,10.38
2024-01-20T05:51:19.081Z,11.50
2024-01-20T05:53:46.974Z,12.25
2024-01-20T05:56:16.661Z,10.82
2024-01-20T05:58:44.867Z,15.45
2024-01-20T06:01:11.911Z,12.25
2024-01-20T06:03:39.098Z,14.18
2024-01-20T06:06:12.280Z,10.85
2024-01-20T06:08:39.568Z,12.38
2024-01-20T06:11:06.460Z,14.50
2024-01-20T06:13:33.510Z,13.07
2024-01-20T06:16:00.864Z,13.68
2024-01-20T06:18:29.963Z,11.85
2024-01-20T06:20:57.931Z,11.20
2024-01-20T06:23:25.200Z,14.50
2024-01-20T06:25:54.168Z,10.60
2024-01-20T06:28:22.721Z,10.82
2024-01-20T06:30:51.113Z,13.32
2024-01-20T06:33:18.406Z,12.68
2024-01-20T06:35:45.705Z,12.13
2024-01-20T06:38:13.747Z,16.15
2024-01-20T06:40:43.263Z,12.80
2024-01-20T06:43:10.712Z,14.23
2024-01-20T06:45:40.927Z,17.17
2024-01-20T06:48:11.453Z,15.02
2024-01-20T06:50:44.307Z,14.13
2024-01-20T06:53:14.141Z,12.85
2024-01-20T06:55:41.394Z,16.25
2024-01-20T06:58:08.769Z,16.55
2024-01-20T07:00:35.734Z,14.45
2024-01-20T07:03:04.173Z,13.60
2024-01-20T07:05:34.090Z,15.48
2024-01-20T07:08:05.788Z,15.07
2024-01-20T07:10:32.675Z,15.85
2024-01-20T07:12:59.929Z,14.45
2024-01-20T07:15:28.160Z,15.38
2024-01-20T07:17:58.752Z,15.75
2024-01-20T07:20:27.418Z,16.13
2024-01-20T07:22:54.710Z,16.25
2024-01-20T07:25:22.023Z,12.60
2024-01-20T07:27:49.306Z,14.98
2024-01-20T07:30:16.813Z,14.55
2024-01-20T07:32:44.303Z,14.00
2024-01-20T07:35:11.670Z,13.75
2024-01-20T07:37:42.891Z,15.93
2024-01-20T07:40:10.844Z,13.05
2024-01-20T07:42:41.474Z,14.68
2024-01-20T07:45:09.030Z,16.10
2024-01-20T07:47:36.099Z,16.75
2024-01-20T07:50:03.666Z,15.63
2024-01-20T07:52:30.465Z,14.25
2024-01-20T07:54:57.580Z,14.75
2024-01-20T07:57:24.424Z,17.45
2024-01-20T07:59:52.466Z,16.58
2024-01-20T08:02:19.666Z,15.50
2024-01-20T08:04:48.957Z,15.30
2024-01-20T08:07:16.424Z,14.95
2024-01-20T08:09:43.802Z,13.68
2024-01-20T08:12:10.725Z,18.80
2024-01-20T08:14:37.600Z,13.93
2024-01-20T08:17:04.862Z,17.10
2024-01-20T08:19:32.210Z,14.30
2024-01-20T08:22:00.565Z,14.93
2024-01-20T08:24:27.514Z,13.52
2024-01-20T08:26:54.530Z,15.82
2024-01-20T08:29:23.604Z,19.35
2024-01-20T08:31:51.020Z,13.82
2024-01-20T08:34:17.921Z,14.15
2024-01-20T08:36:45.374Z,13.05
2024-01-20T08:39:12.400Z,12.18
2024-01-20T08:41:39.729Z,13.18
2024-01-20T08:44:06.601Z,10.30
2024-01-20T08:46:34.610Z,11.23
2024-01-20T08:49:01.497Z,13.07
2024-01-20T08:51:30.650Z,12.68
2024-01-20T08:53:57.606Z,12.35
2024-01-20T08:56:26.012Z,11.50
2024-01-20T08:58:53.988Z,13.45
2024-01-20T09:01:23.920Z,12.45
2024-01-20T09:03:51.004Z,14.82
2024-01-20T09:06:18.426Z,14.10
2024-01-20T09:08:45.834Z,11.80
2024-01-20T09:11:13.234Z,15.05
2024-01-20T09:13:41.283Z,10.88
2024-01-20T09:16:08.208Z,9.75
2024-01-20T09:18:35.393Z,11.25
2024-01-20T09:21:02.572Z,10.30
2024-01-20T09:23:29.741Z,8.93
2024-01-20T09:25:56.913Z,11.57
2024-01-20T09:28:23.853Z,11.38
2024-01-20T09:30:51.853Z,17.10
2024-01-20T09:33:19.107Z,18.02
2024-01-20T09:35:46.275Z,25.80
2024-01-20T09:38:13.236Z,13.02
2024-01-20T09:40:40.281Z,13.95
2024-01-20T09:43:11.610Z,13.20
2024-01-20T09:45:41.474Z,12.40
2024-01-20T09:48:09.216Z,10.68
2024-01-20T09:50:36.753Z,10.93
2024-01-20T09:53:13.616Z,15.75
2024-01-20T09:55:42.962Z,12.40
2024-01-20T09:58:15.464Z,9.55
2024-01-20T10:00:43.621Z,11.37
2024-01-20T10:03:12.463Z,11.23
2024-01-20T10:05:39.971Z,11.43
2024-01-20T10:08:08.410Z,12.40
2024-01-20T10:10:41.996Z,9.02
2024-01-20T10:13:08.989Z,10.57
2024-01-20T10:15:37.057Z,12.32
2024-01-20T10:18:12.653Z,9.52
2024-01-20T10:20:40.964Z,12.88
2024-01-20T10:23:09.033Z,9.88
2024-01-20T10:25:39.512Z,9.80
2024-01-20T10:28:08.936Z,10.70
2024-01-20T10:30:39.008Z,10.95
2024-01-20T10:33:10.083Z,8.68
2024-01-20T10:35:39.963Z,8.82
2024-01-20T10:55:11.092Z,9.57
2024-01-20T10:57:38.520Z,13.70
2024-01-20T11:00:10.289Z,8.45
2024-01-20T11:02:38.271Z,10.43
2024-01-20T11:05:22.919Z,10.85
2024-01-20T11:08:24.148Z,10.48
2024-01-20T11:10:54.503Z,12.10
2024-01-20T11:13:26.267Z,10.32
2024-01-20T11:15:56.912Z,10.00
2024-01-20T11:18:28.668Z,11.77
2024-01-20T11:21:03.595Z,7.47
2024-01-20T11:23:32.790Z,11.27
2024-01-20T11:26:10.764Z,9.48
2024-01-20T11:28:38.160Z,10.50
2024-01-20T11:31:05.453Z,8.02
2024-01-20T11:33:33.038Z,9.60
2024-01-20T11:36:01.745Z,7.75
2024-01-20T11:38:30.129Z,9.85
2024-01-20T11:41:02.358Z,12.15
2024-01-20T11:43:30.925Z,8.60
2024-01-20T11:45:58.550Z,11.50
2024-01-20T11:48:27.169Z,9.27
2024-01-20T11:50:55.385Z,6.97
2024-01-20T11:53:23.733Z,9.02
2024-01-20T11:55:56.782Z,6.40
2024-01-20T11:58:24.182Z,11.02
2024-01-20T12:00:55.644Z,11.80
2024-01-20T12:03:23.310Z,10.00
2024-01-20T12:05:53.086Z,11.85
2024-01-20T12:08:21.911Z,7.45
2024-01-20T12:10:50.063Z,8.05
2024-01-20T12:13:17.952Z,10.45
2024-01-20T12:15:47.865Z,9.13
2024-01-20T12:18:18.079Z,9.02
2024-01-20T12:20:45.851Z,8.07
2024-01-20T12:23:19.297Z,7.03
2024-01-20T12:28:14.290Z,7.63
2024-01-20T12:30:41.328Z,9.57
2024-01-20T12:33:08.307Z,6.10
2024-01-20T12:35:39.807Z,7.03
2024-01-20T12:38:06.716Z,8.05
2024-01-20T12:40:33.721Z,7.72
2024-01-20T12:43:02.658Z,8.15
2024-01-20T12:45:29.731Z,6.47
2024-01-20T12:47:57.481Z,8.35
2024-01-20T12:50:25.490Z,6.28
2024-01-20T12:52:52.714Z,7.63
2024-01-20T12:55:20.162Z,7.00
2024-01-20T12:57:48.054Z,8.48
2024-01-20T13:00:15.876Z,7.70
2024-01-20T13:02:43.903Z,7.75
2024-01-20T13:05:13.927Z,8.60
2024-01-20T13:07:40.860Z,7.85
2024-01-20T13:10:08.657Z,8.40
2024-01-20T13:12:36.194Z,8.93
2024-01-20T13:15:03.353Z,8.80
2024-01-20T13:17:30.655Z,9.43
2024-01-20T13:19:57.609Z,10.82
2024-01-20T13:22:24.545Z,7.28
2024-01-20T13:24:51.492Z,6.57
2024-01-20T13:27:18.554Z,9.25
2024-01-20T13:29:45.889Z,7.97
2024-01-20T13:32:13.502Z,10.38
2024-01-20T13:34:40.964Z,8.55
2024-01-20T13:37:08.373Z,9.85
2024-01-20T13:39:36.325Z,9.73
2024-01-20T13:42:03.268Z,10.13
2024-01-20T13:44:30.698Z,9.63
2024-01-20T13:46:57.477Z,9.48
2024-01-20T13:49:25.799Z,10.68
2024-01-20T13:51:53.094Z,11.38
2024-01-20T13:54:22.070Z,14.30
2024-01-20T13:56:50.651Z,10.60
2024-01-20T13:59:18.519Z,6.82
2024-01-20T14:01:45.560Z,11.95
2024-01-20T14:04:12.573Z,11.75
2024-01-20T14:06:40.091Z,11.73
2024-01-20T14:09:11.428Z,9.07
2024-01-20T14:11:38.841Z,9.70
2024-01-20T14:14:07.298Z,10.65
2024-01-20T14:16:35.334Z,13.20
2024-01-20T14:19:08.721Z,9.80
2024-01-20T14:21:36.618Z,10.45
2024-01-20T14:24:06.157Z,11.10
2024-01-20T14:26:33.497Z,10.30
2024-01-20T14:29:01.806Z,10.50
2024-01-20T14:31:29.832Z,9.13
2024-01-20T14:33:58.236Z,10.80
2024-01-20T14:36:28.728Z,8.00
2024-01-20T14:38:55.808Z,10.27
2024-01-20T14:41:22.706Z,9.90
2024-01-20T14:43:55.493Z,13.43
2024-01-20T14:46:22.963Z,9.50
2024-01-20T14:48:51.395Z,9.20
2024-01-20T14:51:18.864Z,14.40
2024-01-20T14:53:46.226Z,9.98
2024-01-20T14:56:14.122Z,10.80
2024-01-20T14:58:41.038Z,10.55
2024-01-20T15:01:08.122Z,9.80
2024-01-20T15:03:35.617Z,10.75
2024-01-20T15:06:04.042Z,12.10
2024-01-20T15:08:31.024Z,12.50
2024-01-20T15:10:57.892Z,13.93
2024-01-20T15:13:24.709Z,12.68
2024-01-20T15:15:54.202Z,11.60
2024-01-20T15:18:23.616Z,15.25
2024-01-20T15:20:51.807Z,14.23
2024-01-20T15:23:18.968Z,13.55
2024-01-20T15:25:46.386Z,14.27
2024-01-20T15:28:14.929Z,14.88
2024-01-20T15:30:42.252Z,17.30
2024-01-20T15:33:10.954Z,20.30
2024-01-20T15:35:38.408Z,12.48
2024-01-20T15:38:05.836Z,12.10
2024-01-20T15:40:33.160Z,13.60
2024-01-20T15:42:59.954Z,12.80
2024-01-20T15:45:27.967Z,13.18
2024-01-20T15:47:57.105Z,12.85
2024-01-20T15:50:24.373Z,12.80
2024-01-20T15:52:51.216Z,13.77
2024-01-20T15:55:21.978Z,12.63
2024-01-20T15:57:48.962Z,16.40
2024-01-20T16:00:18.000Z,13.02
2024-01-20T16:02:45.496Z,16.25
2024-01-20T16:05:12.457Z,10.82
2024-01-20T16:07:39.452Z,15.32
2024-01-20T16:10:07.243Z,12.88
2024-01-20T16:12:34.260Z,13.50
2024-01-20T16:15:01.216Z,17.52
2024-01-20T16:17:28.464Z,14.07
2024-01-20T16:19:55.884Z,17.33
2024-01-20T16:22:22.703Z,17.30
2024-01-20T16:24:51.458Z,18.55
2024-01-20T16:27:18.705Z,19.95
2024-01-20T16:29:46.767Z,18.25
2024-01-20T16:32:16.180Z,14.38
2024-01-20T16:34:44.389Z,14.88
2024-01-20T16:37:12.304Z,15.13
2024-01-20T16:39:39.780Z,16.23
2024-01-20T16:42:08.170Z,13.88
2024-01-20T16:44:35.031Z,15.90
2024-01-20T16:47:04.063Z,15.98
2024-01-20T16:49:31.037Z,17.95
2024-01-20T16:51:59.410Z,21.20
2024-01-20T16:54:27.415Z,19.30
2024-01-20T16:56:54.321Z,15.82
2024-01-20T16:59:21.283Z,17.08
2024-01-20T17:01:48.204Z,17.02
2024-01-20T17:04:16.294Z,15.60
2024-01-20T17:06:44.306Z,14.60
2024-01-20T17:09:16.079Z,16.05
2024-01-20T17:11:48.908Z,15.65
2024-01-20T17:14:19.799Z,14.77
2024-01-20T17:16:50.024Z,15.60
2024-01-20T17:19:17.503Z,16.15
2024-01-20T17:21:44.908Z,15.27
2024-01-20T17:24:12.362Z,15.25
2024-01-20T17:26:40.067Z,15.30
2024-01-20T17:29:08.236Z,17.15
2024-01-20T17:31:38.355Z,14.05
2024-01-20T17:34:05.204Z,16.45
2024-01-20T17:36:33.315Z,18.67
2024-01-20T17:39:01.725Z,16.90
2024-01-20T17:41:29.040Z,19.30
2024-01-20T17:43:56.056Z,14.30
2024-01-20T17:46:24.000Z,18.52
2024-01-20T17:48:54.938Z,16.65
2024-01-20T17:51:21.918Z,17.83
2024-01-20T17:53:50.000Z,17.85
2024-01-20T17:56:19.405Z,15.75
2024-01-20T17:58:47.378Z,16.98
2024-01-20T18:01:14.333Z,19.90
2024-01-20T18:03:41.310Z,18.38
2024-01-20T18:06:09.573Z,18.38
2024-01-20T18:08:37.169Z,19.90
2024-01-20T18:11:05.278Z,18.83
2024-01-20T18:13:32.135Z,17.95
2024-01-20T18:15:59.724Z,21.73
2024-01-20T18:18:26.697Z,39.60
2024-01-20T18:20:53.904Z,27.65
2024-01-20T18:23:26.042Z,21.75
2024-01-20T18:25:52.927Z,18.85
2024-01-20T18:28:19.981Z,18.20
2024-01-20T18:30:48.086Z,20.23
2024-01-20T18:33:15.530Z,17.80
2024-01-20T18:35:42.719Z,16.73
2024-01-20T18:38:12.858Z,17.50
2024-01-20T18:40:39.962Z,15.85
2024-01-20T18:43:07.238Z,16.27
2024-01-20T18:45:34.159Z,17.27
2024-01-20T18:48:06.310Z,16.70
2024-01-20T18:50:35.943Z,16.45
2024-01-20T18:53:02.834Z,15.65
2024-01-20T18:55:31.830Z,17.80
2024-01-20T18:57:58.765Z,13.05
2024-01-20T19:00:28.461Z,16.13
2024-01-20T19:02:55.776Z,15.75
2024-01-20T19:05:23.309Z,17.13
2024-01-20T19:07:50.784Z,16.63
2024-01-20T19:10:19.187Z,18.48
2024-01-20T19:12:47.666Z,16.88
2024-01-20T19:15:15.326Z,14.52
2024-01-20T19:17:48.999Z,18.23
2024-01-20T19:20:16.360Z,16.88
2024-01-20T19:22:43.704Z,17.40
2024-01-20T19:25:13.011Z,15.38
2024-01-20T19:27:42.296Z,18.52
2024-01-20T19:30:12.814Z,13.55
2024-01-20T19:32:41.344Z,15.10
2024-01-20T19:35:08.665Z,14.55
2024-01-20T19:37:35.380Z,13.82
2024-01-20T19:40:03.813Z,15.95
2024-01-20T19:42:31.034Z,17.73
2024-01-20T19:44:58.579Z,16.85
2024-01-20T19:47:27.044Z,23.27
2024-01-20T19:49:54.939Z,17.05
2024-01-20T19:52:21.994Z,20.35
2024-01-20T19:54:49.170Z,17.00
2024-01-20T19:57:17.004Z,19.65
2024-01-20T19:59:44.077Z,15.98
2024-01-20T20:02:11.103Z,16.38
2024-01-20T20:04:40.527Z,17.50
2024-01-20T20:07:10.293Z,19.30
2024-01-20T20:09:38.994Z,15.80
2024-01-20T20:12:09.270Z,15.75
2024-01-20T20:14:37.575Z,15.93
2024-01-20T20:17:07.583Z,17.02
2024-01-20T20:19:37.669Z,15.35
2024-01-20T20:22:05.042Z,15.82
2024-01-20T20:24:33.081Z,16.50
2024-01-20T20:27:02.067Z,17.33
2024-01-20T20:29:29.078Z,16.23
2024-01-20T20:31:57.032Z,16.48
2024-01-20T20:34:25.157Z,18.75
2024-01-20T20:36:57.876Z,17.15
2024-01-20T20:39:25.378Z,16.92
2024-01-20T20:41:55.487Z,22.52
2024-01-20T20:44:24.548Z,25.58
2024-01-20T20:46:52.835Z,20.00
2024-01-20T20:49:20.057Z,20.58
2024-01-20T20:51:47.606Z,18.15
2024-01-20T20:54:14.897Z,16.70
2024-01-20T20:56:41.820Z,18.85
2024-01-20T20:59:08.767Z,20.33
2024-01-20T21:01:35.777Z,16.73
2024-01-20T21:04:07.757Z,17.48
2024-01-20T21:06:34.935Z,17.45
2024-01-20T21:09:01.846Z,16.73
2024-01-20T21:11:28.796Z,19.73
2024-01-20T21:13:56.677Z,23.98
2024-01-20T21:16:25.310Z,24.05
2024-01-20T21:18:56.063Z,26.42
2024-01-20T21:21:24.933Z,21.55
2024-01-20T21:23:54.416Z,19.08
2024-01-20T21:26:24.369Z,23.25
2024-01-20T21:28:51.802Z,18.40
2024-01-20T21:31:18.994Z,20.77
2024-01-20T21:33:47.468Z,18.98
2024-01-20T21:36:15.712Z,25.05
2024-01-20T21:38:43.758Z,26.10
2024-01-20T21:41:13.958Z,20.98
2024-01-20T21:43:41.254Z,17.63
2024-01-20T21:46:11.215Z,19.23
2024-01-20T21:48:40.236Z,16.25
2024-01-20T21:51:07.111Z,18.35
2024-01-20T21:53:34.078Z,23.10
2024-01-20T21:56:00.959Z,17.30
2024-01-20T21:58:27.999Z,16.35
2024-01-20T22:00:55.307Z,17.48
2024-01-20T22:03:24.090Z,17.60
2024-01-20T22:05:51.623Z,16.02
2024-01-20T22:08:19.523Z,19.33
2024-01-20T22:10:46.498Z,16.83
2024-01-20T22:13:13.383Z,14.85
2024-01-20T22:15:41.621Z,20.42
2024-01-20T22:18:08.893Z,16.67
2024-01-20T22:20:35.929Z,19.65
2024-01-20T22:23:04.012Z,18.08
2024-01-20T22:25:31.253Z,19.50
2024-01-20T22:28:00.290Z,19.58
2024-01-20T22:30:27.299Z,19.05
2024-01-20T22:32:54.161Z,19.23
2024-01-20T22:35:21.205Z,19.42
2024-01-20T22:37:51.437Z,18.73
2024-01-20T22:40:18.612Z,17.92
2024-01-20T22:42:47.624Z,17.35
2024-01-20T22:45:14.578Z,16.95
2024-01-20T22:47:45.192Z,19.40
2024-01-20T22:50:14.782Z,17.80
2024-01-20T22:52:41.904Z,18.42
2024-01-20T22:55:09.215Z,20.75
2024-01-20T22:57:38.872Z,18.45
2024-01-20T23:00:14.204Z,17.90
2024-01-20T23:02:43.345Z,16.67
2024-01-20T23:05:10.706Z,16.52
2024-01-20T23:07:39.362Z,16.90
2024-01-20T23:10:09.280Z,16.63
2024-01-20T23:12:37.768Z,16.85
2024-01-20T23:15:06.358Z,17.67
2024-01-20T23:17:33.819Z,15.70
2024-01-20T23:20:02.451Z,17.25
2024-01-20T23:22:32.600Z,16.35
2024-01-20T23:24:59.885Z,17.42
2024-01-20T23:27:26.870Z,17.83
2024-01-20T23:29:53.722Z,20.70
2024-01-20T23:32:21.813Z,16.55
2024-01-20T23:34:49.766Z,18.48
2024-01-20T23:37:17.726Z,16.67
2024-01-20T23:39:44.757Z,17.25
2024-01-20T23:42:12.068Z,17.00
2024-01-20T23:44:43.306Z,15.43
2024-01-20T23:47:10.572Z,19.00
2024-01-20T23:49:37.816Z,20.85
2024-01-20T23:52:11.123Z,18.33
2024-01-20T23:57:07.156Z,19.38
2024-01-20T23:59:34.490Z,18.80
